Northpoint, Arkansas
Current Conditions -  °F | °C
As of 2:53 PM on Tuesday 21 Oct 2014 (Local Time) from KLIT Reporting Station
Few Clouds Few Clouds  
Wind Chill: 80°   Ceiling: Unl
Heat Index: 80°   Visibility: 10mi
Dew Point: 51°   Wind: 3mph
Humidity: 36%   Direction: 50°NE
Pressure: 30.05"   Gusts: NA
Location:  34.8869°N, 92.5324°W
Report Text: KLIT 211953Z 05003KT 10SM FEW050 27/11 A3005 RMK AO2 SLP176 T02670106
Loading
Personal Weather Stations






























Interactive Weather Map
Tropical Storm Tracking
New forecast layout! Learn more

10-Day Weather Forecast

Advertisements
Track Severe Weather on mobile